createdAt,value
2018-01-13T00:00:52.961Z,15.93
2018-01-13T00:03:21.584Z,16.17
2018-01-13T00:05:50.192Z,14.37
2018-01-13T00:08:19.359Z,13.90
2018-01-13T00:10:48.247Z,14.90
2018-01-13T00:13:16.615Z,15.10
2018-01-13T00:15:45.019Z,13.73
2018-01-13T00:18:15.437Z,14.70
2018-01-13T00:20:45.144Z,13.47
2018-01-13T00:23:14.157Z,16.70
2018-01-13T00:25:43.685Z,12.70
2018-01-13T00:28:14.533Z,13.57
2018-01-13T00:30:45.535Z,13.73
2018-01-13T00:33:15.013Z,14.90
2018-01-13T00:35:43.907Z,13.73
2018-01-13T00:38:12.349Z,15.63
2018-01-13T00:40:42.599Z,14.93
2018-01-13T00:43:11.040Z,15.77
2018-01-13T00:45:39.456Z,15.90
2018-01-13T00:48:08.552Z,15.37
2018-01-13T00:50:37.816Z,15.30
2018-01-13T00:53:06.245Z,14.10
2018-01-13T00:55:36.402Z,16.07
2018-01-13T00:58:04.804Z,12.60
2018-01-13T01:00:33.191Z,13.60
2018-01-13T01:03:02.319Z,12.20
2018-01-13T01:05:31.511Z,12.17
2018-01-13T01:07:59.892Z,13.47
2018-01-13T01:10:29.683Z,14.80
2018-01-13T01:12:58.047Z,11.77
2018-01-13T01:15:26.397Z,13.10
2018-01-13T01:17:56.276Z,13.50
2018-01-13T01:20:24.650Z,15.57
2018-01-13T01:22:54.402Z,12.33
2018-01-13T01:25:23.299Z,14.20
2018-01-13T01:27:51.778Z,14.27
2018-01-13T01:30:20.159Z,14.20
2018-01-13T01:32:48.711Z,15.53
2018-01-13T01:35:17.117Z,13.60
2018-01-13T01:37:45.564Z,14.07
2018-01-13T01:40:14.414Z,13.60
2018-01-13T01:42:42.766Z,15.23
2018-01-13T01:45:11.181Z,15.70
2018-01-13T01:47:40.723Z,15.40
2018-01-13T01:50:09.200Z,15.50
2018-01-13T01:52:37.641Z,13.73
2018-01-13T01:55:06.153Z,13.00
2018-01-13T01:57:35.708Z,12.70
2018-01-13T02:00:04.342Z,11.77
2018-01-13T02:02:33.703Z,13.03
2018-01-13T02:05:02.914Z,12.87
2018-01-13T02:07:31.486Z,13.73
2018-01-13T02:10:01.032Z,15.87
2018-01-13T02:12:29.581Z,14.90
2018-01-13T02:14:58.955Z,15.03
2018-01-13T02:17:28.074Z,13.93
2018-01-13T02:19:57.482Z,13.53
2018-01-13T02:22:26.958Z,13.73
2018-01-13T02:24:56.078Z,14.00
2018-01-13T02:27:24.625Z,14.03
2018-01-13T02:29:53.192Z,13.90
2018-01-13T02:32:22.667Z,12.97
2018-01-13T02:34:51.213Z,14.83
2018-01-13T02:37:19.819Z,15.63
2018-01-13T02:42:23.470Z,14.73
2018-01-13T02:44:52.606Z,15.43
2018-01-13T02:47:21.185Z,14.60
2018-01-13T02:49:49.820Z,14.50
2018-01-13T02:52:18.923Z,14.90
2018-01-13T02:54:47.491Z,14.77
2018-01-13T02:57:16.021Z,14.40
2018-01-13T02:59:44.810Z,13.70
2018-01-13T03:02:13.477Z,14.87
2018-01-13T03:04:42.007Z,16.53
2018-01-13T03:07:10.731Z,15.07
2018-01-13T03:09:39.293Z,14.40
2018-01-13T03:12:07.855Z,13.77
2018-01-13T03:14:37.426Z,15.13
2018-01-13T03:17:05.961Z,14.63
2018-01-13T03:19:35.141Z,13.20
2018-01-13T03:22:03.942Z,12.73
2018-01-13T03:24:33.254Z,13.57
2018-01-13T03:27:02.020Z,14.30
2018-01-13T03:29:31.833Z,13.73
2018-01-13T03:32:00.383Z,12.97
2018-01-13T03:34:30.514Z,12.97
2018-01-13T03:36:59.386Z,13.33
2018-01-13T03:39:27.927Z,13.20
2018-01-13T03:41:56.483Z,14.50
2018-01-13T03:44:25.731Z,13.23
2018-01-13T03:46:54.298Z,13.03
2018-01-13T03:49:22.928Z,11.87
2018-01-13T03:51:52.053Z,12.27
2018-01-13T03:54:20.663Z,12.17
2018-01-13T03:56:49.222Z,12.03
2018-01-13T03:59:17.875Z,13.73
2018-01-13T04:01:46.440Z,13.30
2018-01-13T04:04:15.034Z,14.03
2018-01-13T04:06:44.122Z,12.13
2018-01-13T04:09:13.437Z,13.40
2018-01-13T04:11:42.284Z,12.33
2018-01-13T04:14:11.376Z,12.00
2018-01-13T04:16:39.929Z,9.90
2018-01-13T04:19:08.474Z,10.47
2018-01-13T04:21:39.366Z,10.17
2018-01-13T04:24:07.885Z,9.63
2018-01-13T04:26:37.064Z,10.93
2018-01-13T04:29:06.475Z,10.60
2018-01-13T04:31:36.254Z,9.13
2018-01-13T04:34:06.894Z,10.10
2018-01-13T04:36:35.435Z,10.20
2018-01-13T04:39:03.572Z,10.83
2018-01-13T04:41:32.138Z,9.60
2018-01-13T04:44:00.666Z,10.10
2018-01-13T04:46:29.994Z,10.70
2018-01-13T04:48:59.923Z,10.63
2018-01-13T04:51:28.850Z,10.10
2018-01-13T04:53:57.592Z,11.43
2018-01-13T04:56:26.446Z,9.67
2018-01-13T04:58:55.111Z,10.47
2018-01-13T05:01:23.693Z,9.90
2018-01-13T05:03:52.814Z,8.73
2018-01-13T05:06:21.727Z,9.53
2018-01-13T05:08:51.126Z,10.53
2018-01-13T05:11:19.936Z,10.17
2018-01-13T05:13:48.486Z,10.43
2018-01-13T05:16:17.070Z,10.13
2018-01-13T05:18:45.974Z,9.60
2018-01-13T05:21:14.494Z,9.70
2018-01-13T05:23:43.105Z,9.43
2018-01-13T05:26:11.711Z,10.30
2018-01-13T05:28:40.274Z,9.30
2018-01-13T05:31:10.383Z,10.07
2018-01-13T05:33:39.789Z,8.30
2018-01-13T05:36:08.432Z,9.10
2018-01-13T05:38:37.010Z,10.60
2018-01-13T05:41:05.572Z,10.43
2018-01-13T05:43:34.888Z,10.80
2018-01-13T05:46:04.378Z,11.57
2018-01-13T05:48:35.494Z,10.33
2018-01-13T05:51:04.164Z,11.80
2018-01-13T05:53:32.694Z,10.33
2018-01-13T05:56:01.823Z,10.90
2018-01-13T05:58:30.425Z,11.03
2018-01-13T06:00:59.455Z,11.27
2018-01-13T06:03:29.509Z,11.07
2018-01-13T06:05:58.107Z,10.33
2018-01-13T06:08:26.967Z,10.43
2018-01-13T06:10:56.143Z,10.90
2018-01-13T06:13:24.736Z,10.37
2018-01-13T06:15:53.421Z,11.57
2018-01-13T06:18:22.258Z,9.23
2018-01-13T06:20:50.827Z,11.03
2018-01-13T06:23:20.158Z,11.73
2018-01-13T06:25:49.342Z,10.23
2018-01-13T06:28:17.964Z,11.33
2018-01-13T06:30:46.564Z,10.17
2018-01-13T06:33:16.783Z,10.90
2018-01-13T06:35:48.086Z,12.00
2018-01-13T06:38:17.843Z,9.93
2018-01-13T06:40:46.456Z,9.83
2018-01-13T06:43:14.894Z,9.93
2018-01-13T06:45:43.730Z,9.50
2018-01-13T06:48:13.379Z,9.03
2018-01-13T06:50:41.922Z,9.53
2018-01-13T06:53:10.566Z,8.77
2018-01-13T06:55:39.819Z,8.50
2018-01-13T06:58:08.504Z,9.57
2018-01-13T07:00:39.965Z,8.37
2018-01-13T07:03:09.616Z,9.40
2018-01-13T07:05:40.128Z,9.80
2018-01-13T07:08:11.535Z,9.37
2018-01-13T07:10:42.417Z,9.73
2018-01-13T07:13:10.971Z,7.47
2018-01-13T07:15:39.395Z,9.30
2018-01-13T07:18:08.370Z,9.80
2018-01-13T07:20:37.113Z,9.37
2018-01-13T07:23:05.832Z,9.20
2018-01-13T07:25:34.810Z,8.60
2018-01-13T07:28:04.174Z,8.03
2018-01-13T07:30:33.822Z,8.10
2018-01-13T07:33:02.700Z,7.67
2018-01-13T07:35:31.292Z,7.43
2018-01-13T07:38:00.988Z,7.93
2018-01-13T07:40:29.785Z,8.13
2018-01-13T07:42:58.403Z,7.87
2018-01-13T07:45:27.785Z,8.63
2018-01-13T07:47:57.203Z,8.67
2018-01-13T07:50:25.819Z,7.90
2018-01-13T07:52:54.437Z,7.83
2018-01-13T07:55:22.951Z,7.70
2018-01-13T07:57:51.510Z,7.97
2018-01-13T08:00:20.809Z,8.73
2018-01-13T08:02:49.366Z,8.10
2018-01-13T08:05:17.919Z,7.63
2018-01-13T08:07:49.135Z,8.63
2018-01-13T08:10:19.138Z,7.83
2018-01-13T08:12:47.771Z,8.80
2018-01-13T08:15:17.134Z,8.87
2018-01-13T08:17:46.202Z,7.90
2018-01-13T08:20:14.929Z,8.10
2018-01-13T08:22:44.670Z,8.00
2018-01-13T08:25:14.057Z,8.10
2018-01-13T08:27:42.654Z,7.40
2018-01-13T08:30:11.320Z,8.73
2018-01-13T08:32:42.495Z,7.97
2018-01-13T08:35:12.548Z,8.60
2018-01-13T08:37:42.272Z,7.77
2018-01-13T08:40:11.118Z,8.23
2018-01-13T08:42:39.792Z,7.53
2018-01-13T08:45:08.635Z,8.23
2018-01-13T08:47:39.654Z,8.07
2018-01-13T08:50:09.900Z,9.13
2018-01-13T08:52:39.537Z,8.30
2018-01-13T08:55:09.583Z,8.80
2018-01-13T08:57:39.155Z,9.10
2018-01-13T09:00:08.494Z,8.73
2018-01-13T09:02:41.479Z,7.70
2018-01-13T09:05:11.203Z,8.60
2018-01-13T09:07:40.890Z,8.33
2018-01-13T09:10:10.263Z,9.10
2018-01-13T09:12:39.651Z,7.73
2018-01-13T09:15:09.856Z,7.40
2018-01-13T09:17:39.328Z,7.73
2018-01-13T09:20:07.913Z,8.53
2018-01-13T09:22:36.601Z,8.23
2018-01-13T14:36:42.932Z,9.70
2018-01-13T14:41:45.681Z,10.97
2018-01-13T14:44:13.489Z,8.93
2018-01-13T14:46:42.776Z,9.03
2018-01-13T14:49:11.701Z,10.17
2018-01-13T14:51:39.371Z,9.83
2018-01-13T14:54:07.108Z,10.63
2018-01-13T14:56:35.432Z,10.27
2018-01-13T14:59:03.211Z,9.17
2018-01-13T15:01:30.991Z,10.63
2018-01-13T15:03:59.342Z,9.97
2018-01-13T15:06:27.123Z,9.17
2018-01-13T15:08:54.838Z,8.87
2018-01-13T15:11:23.287Z,10.30
2018-01-13T15:13:52.696Z,10.23
2018-01-13T15:16:20.517Z,11.13
2018-01-13T15:18:48.340Z,11.03
2018-01-13T15:21:16.925Z,10.93
2018-01-13T15:23:44.782Z,10.87
2018-01-13T15:26:12.521Z,9.43
2018-01-13T15:28:40.888Z,11.27
2018-01-13T15:31:08.762Z,10.60
2018-01-13T15:33:36.664Z,9.23
2018-01-13T15:36:05.683Z,10.33
2018-01-13T15:38:35.688Z,13.17
2018-01-13T15:41:03.503Z,11.57
2018-01-13T15:43:31.676Z,10.53
2018-01-13T15:46:00.121Z,11.37
2018-01-13T15:48:28.589Z,11.07
2018-01-13T15:50:57.963Z,11.00
2018-01-13T15:53:26.832Z,11.93
2018-01-13T15:55:54.509Z,10.67
2018-01-13T15:58:25.314Z,11.97
2018-01-13T16:00:55.096Z,11.50
2018-01-13T16:03:23.428Z,11.20
2018-01-13T16:05:51.283Z,12.17
2018-01-13T16:08:19.669Z,12.10
2018-01-13T16:10:48.370Z,11.73
2018-01-13T16:13:16.410Z,12.67
2018-01-13T16:15:44.519Z,12.80
2018-01-13T16:18:12.955Z,11.97
2018-01-13T16:20:41.487Z,13.20
2018-01-13T16:23:12.102Z,12.10
2018-01-13T16:25:42.710Z,12.73
2018-01-13T16:28:11.437Z,12.90
2018-01-13T16:30:39.721Z,13.27
2018-01-13T16:33:09.305Z,11.07
2018-01-13T16:35:38.006Z,13.17
2018-01-13T16:38:07.061Z,12.40
2018-01-13T16:40:35.280Z,12.67
2018-01-13T16:43:05.503Z,11.63
2018-01-13T16:45:33.560Z,12.77
2018-01-13T16:48:03.153Z,12.80
2018-01-13T16:50:31.532Z,11.07
2018-01-13T16:52:59.760Z,11.60
2018-01-13T16:55:29.655Z,10.10
2018-01-13T16:57:58.668Z,10.20
2018-01-13T17:00:26.945Z,12.77
2018-01-13T17:02:55.492Z,11.57
2018-01-13T17:05:23.966Z,10.77
2018-01-13T17:07:51.936Z,11.40
2018-01-13T17:10:21.040Z,10.73
2018-01-13T17:12:49.475Z,12.10
2018-01-13T17:15:19.390Z,10.37
2018-01-13T17:17:47.541Z,10.53
2018-01-13T17:20:15.957Z,12.70
2018-01-13T17:22:44.747Z,12.67
2018-01-13T17:25:12.525Z,12.10
2018-01-13T17:27:40.420Z,11.67
2018-01-13T17:30:08.970Z,11.37
2018-01-13T17:32:38.535Z,16.50
2018-01-13T17:35:07.025Z,15.00
2018-01-13T17:37:36.044Z,16.03
2018-01-13T17:40:05.018Z,13.67
2018-01-13T17:42:32.776Z,16.60
2018-01-13T17:45:01.480Z,15.77
2018-01-13T17:47:31.372Z,14.37
2018-01-13T17:50:01.014Z,14.67
2018-01-13T17:52:29.963Z,15.87
2018-01-13T17:54:58.903Z,14.10
2018-01-13T17:57:27.753Z,14.87
2018-01-13T17:59:56.719Z,13.87
2018-01-13T18:02:24.611Z,15.30
2018-01-13T18:04:53.162Z,13.97
2018-01-13T18:07:21.686Z,16.10
2018-01-13T18:09:51.674Z,14.07
2018-01-13T18:12:20.512Z,13.43
2018-01-13T18:14:48.225Z,13.70
2018-01-13T18:17:16.465Z,14.43
2018-01-13T18:19:45.902Z,14.97
2018-01-13T18:22:13.826Z,14.37
2018-01-13T18:24:42.768Z,15.87
2018-01-13T18:27:12.295Z,14.90
2018-01-13T18:29:41.168Z,13.20
2018-01-13T18:32:09.534Z,14.47
2018-01-13T18:34:37.944Z,15.60
2018-01-13T18:37:05.795Z,14.77
2018-01-13T18:39:36.297Z,15.30
2018-01-13T18:42:04.091Z,15.37
2018-01-13T18:44:32.775Z,16.43
2018-01-13T18:47:03.284Z,17.97
2018-01-13T18:49:33.292Z,17.53
2018-01-13T18:52:02.589Z,17.13
2018-01-13T18:54:32.390Z,16.00
2018-01-13T18:57:01.415Z,17.63
2018-01-13T18:59:30.499Z,16.60
2018-01-13T19:01:59.539Z,18.27
2018-01-13T19:04:28.072Z,16.03
2018-01-13T19:06:55.994Z,16.40
2018-01-13T19:09:23.874Z,17.17
2018-01-13T19:11:52.163Z,17.87
2018-01-13T19:14:20.566Z,17.47
2018-01-13T19:16:48.382Z,16.80
2018-01-13T19:19:16.773Z,16.60
2018-01-13T19:21:44.552Z,17.33
2018-01-13T19:24:14.142Z,16.10
2018-01-13T19:26:42.296Z,16.30
2018-01-13T19:29:11.537Z,18.70
2018-01-13T19:31:40.220Z,16.47
2018-01-13T19:34:09.340Z,15.60
2018-01-13T19:36:38.045Z,16.97
2018-01-13T19:39:06.476Z,16.43
2018-01-13T19:41:35.141Z,18.30
2018-01-13T19:44:03.371Z,18.87
2018-01-13T19:46:33.140Z,18.23
2018-01-13T19:49:03.555Z,19.40
2018-01-13T19:51:31.351Z,17.37
2018-01-13T19:54:00.424Z,18.77
2018-01-13T19:56:29.068Z,17.17
2018-01-13T19:58:56.859Z,18.33
2018-01-13T20:01:25.706Z,19.60
2018-01-13T20:03:54.643Z,18.30
2018-01-13T20:06:23.206Z,18.23
2018-01-13T20:08:52.317Z,20.50
2018-01-13T20:11:20.053Z,19.00
2018-01-13T20:13:49.772Z,17.33
2018-01-13T20:16:18.343Z,19.57
2018-01-13T20:18:46.032Z,17.50
2018-01-13T20:21:13.875Z,19.63
2018-01-13T20:23:41.599Z,19.80
2018-01-13T20:26:09.395Z,17.00
2018-01-13T20:28:37.828Z,18.03
2018-01-13T20:31:06.180Z,18.27
2018-01-13T20:33:33.937Z,20.37
2018-01-13T20:36:02.535Z,17.93
2018-01-13T20:38:31.625Z,19.23
2018-01-13T20:40:59.386Z,19.90
2018-01-13T20:43:28.174Z,17.47
2018-01-13T20:45:56.182Z,18.27
2018-01-13T20:48:24.634Z,14.87
2018-01-13T20:50:54.390Z,17.50
2018-01-13T20:53:22.083Z,18.50
2018-01-13T20:55:50.039Z,18.23
2018-01-13T20:58:18.520Z,18.83
2018-01-13T21:00:47.238Z,18.83
2018-01-13T21:03:14.966Z,18.10
2018-01-13T21:05:44.152Z,18.80
2018-01-13T21:08:12.625Z,17.60
2018-01-13T21:10:40.402Z,17.60
2018-01-13T21:13:08.785Z,18.00
2018-01-13T21:15:37.326Z,19.17
2018-01-13T21:18:05.930Z,17.20
2018-01-13T21:20:34.078Z,18.47
2018-01-13T21:23:02.591Z,17.87
2018-01-13T21:25:31.158Z,17.13
2018-01-13T21:27:59.435Z,17.43
2018-01-13T21:30:27.989Z,14.00
2018-01-13T21:32:57.903Z,17.57
2018-01-13T21:35:26.073Z,15.50
2018-01-13T21:37:55.685Z,19.30
2018-01-13T21:40:24.496Z,17.97
2018-01-13T21:42:52.908Z,18.80
2018-01-13T21:45:21.411Z,19.83
2018-01-13T21:47:49.211Z,19.93
2018-01-13T21:50:17.665Z,17.47
2018-01-13T21:52:45.426Z,18.03
2018-01-13T21:55:13.180Z,17.43
2018-01-13T21:57:41.160Z,18.10
2018-01-13T22:00:08.905Z,19.20
2018-01-13T22:02:36.675Z,21.57
2018-01-13T22:05:05.867Z,19.17
2018-01-13T22:07:34.348Z,19.40
2018-01-13T22:10:02.959Z,19.07
2018-01-13T22:12:31.486Z,17.97
2018-01-13T22:14:59.273Z,19.33
2018-01-13T22:17:27.058Z,21.30
2018-01-13T22:19:55.318Z,18.47
2018-01-13T22:22:23.690Z,18.90
2018-01-13T22:24:51.375Z,18.43
2018-01-13T22:27:19.086Z,18.30
2018-01-13T22:29:47.500Z,17.17
2018-01-13T22:32:15.361Z,18.43
2018-01-13T22:34:44.283Z,19.13
2018-01-13T22:37:12.910Z,19.23
2018-01-13T22:39:41.600Z,19.60
2018-01-13T22:42:09.401Z,18.43
2018-01-13T22:44:37.730Z,19.07
2018-01-13T22:47:05.802Z,20.63
2018-01-13T22:49:34.737Z,21.10
2018-01-13T22:52:03.343Z,19.63
2018-01-13T22:54:31.588Z,19.93
2018-01-13T22:56:59.538Z,18.30
2018-01-13T22:59:27.988Z,20.90
2018-01-13T23:01:56.604Z,19.97
2018-01-13T23:04:24.884Z,19.03
2018-01-13T23:06:53.224Z,17.83
2018-01-13T23:09:21.910Z,18.70
2018-01-13T23:11:50.431Z,18.90
2018-01-13T23:14:19.354Z,19.00
2018-01-13T23:16:48.330Z,16.03
2018-01-13T23:19:16.462Z,17.57
2018-01-13T23:21:45.588Z,17.53
2018-01-13T23:24:14.169Z,18.40
2018-01-13T23:26:43.417Z,17.40
2018-01-13T23:29:11.668Z,18.47
2018-01-13T23:31:39.680Z,17.17
2018-01-13T23:34:07.393Z,16.70
2018-01-13T23:36:36.886Z,17.93
2018-01-13T23:39:05.679Z,19.03
2018-01-13T23:41:33.991Z,16.27
2018-01-13T23:44:02.044Z,17.13
2018-01-13T23:46:30.165Z,16.87
2018-01-13T23:48:58.075Z,16.80
2018-01-13T23:51:26.257Z,14.57
2018-01-13T23:53:55.520Z,15.60
2018-01-13T23:56:23.384Z,16.20
2018-01-13T23:58:53.447Z,16.40
